Time;durP1;ratioP1;P1;durP2;ratioP2;P2;SDS_P1;SDS_P2;PMS_P1;PMS_P2;Temp;Humidity;BMP_temperature;BMP_pressure;BME280_temperature;BME280_humidity;BME280_pressure;Samples;Min_cycle;Max_cycle;Signal;HPM_P1;HPM_P2
2023/02/01 00:01:49;;;;;;;16.08;1.38;;;4.60;99.90;;;;;;5030989;28;20030;-88
2023/02/01 00:04:15;;;;;;;14.70;1.63;;;4.70;99.90;;;;;;5033250;28;20036;-88
2023/02/01 00:06:41;;;;;;;16.27;1.65;;;4.80;99.90;;;;;;5020237;28;20038;-88
2023/02/01 00:09:07;;;;;;;15.35;2.13;;;4.80;99.90;;;;;;5031933;28;20037;-88
2023/02/01 00:11:33;;;;;;;19.50;1.30;;;4.90;99.90;;;;;;5021500;28;20049;-87
2023/02/01 00:13:58;;;;;;;13.65;1.17;;;4.90;99.90;;;;;;5035836;28;20033;-88
2023/02/01 00:16:29;;;;;;;19.48;2.28;;;5.00;99.90;;;;;;5021715;28;20026;-88
2023/02/01 00:19:03;;;;;;;30.52;2.60;;;5.00;99.90;;;;;;5032783;28;20416;-87
2023/02/01 00:21:30;;;;;;;16.00;1.67;;;5.10;99.90;;;;;;5032509;28;20034;-88
2023/02/01 00:23:56;;;;;;;15.15;1.88;;;5.10;99.90;;;;;;5035579;28;20033;-88
2023/02/01 00:26:31;;;;;;;15.32;1.25;;;5.10;99.90;;;;;;5035080;28;20037;-88
2023/02/01 00:28:56;;;;;;;22.00;2.28;;;5.10;99.90;;;;;;5049568;28;20047;-88
2023/02/01 00:31:22;;;;;;;17.10;2.70;;;5.20;99.90;;;;;;5022600;28;20113;-88
2023/02/01 00:33:48;;;;;;;15.25;1.58;;;5.20;99.90;;;;;;5035852;28;20096;-88
2023/02/01 00:36:14;;;;;;;18.10;1.73;;;5.20;99.90;;;;;;5037377;28;20033;-88
2023/02/01 00:38:40;;;;;;;12.98;1.63;;;5.20;99.90;;;;;;5034004;28;20025;-88
2023/02/01 00:41:17;;;;;;;22.13;1.58;;;5.20;99.90;;;;;;5035416;28;20067;-88
2023/02/01 00:43:43;;;;;;;19.65;1.63;;;5.20;99.90;;;;;;5035763;28;20029;-88
2023/02/01 00:46:10;;;;;;;27.08;2.33;;;5.20;99.90;;;;;;5034872;28;20034;-87
2023/02/01 00:48:36;;;;;;;14.68;2.13;;;5.20;99.90;;;;;;5035104;28;20397;-88
2023/02/01 00:51:10;;;;;;;19.73;2.00;;;5.20;99.90;;;;;;5029629;28;20037;-87
2023/02/01 00:53:36;;;;;;;22.05;2.80;;;5.20;99.90;;;;;;5021424;28;20037;-87
2023/02/01 00:56:03;;;;;;;11.43;1.35;;;5.10;99.90;;;;;;5028356;28;20033;-88
2023/02/01 00:58:29;;;;;;;15.13;1.90;;;5.10;99.90;;;;;;5032206;28;20025;-88
2023/02/01 01:01:05;;;;;;;16.05;1.75;;;5.10;99.90;;;;;;5035237;28;20044;-88
2023/02/01 01:03:36;;;;;;;22.10;2.35;;;5.20;99.90;;;;;;5016414;28;20100;-88
2023/02/01 01:06:05;;;;;;;10.93;1.38;;;5.10;99.90;;;;;;5035263;28;20429;-88
2023/02/01 01:08:31;;;;;;;16.23;1.77;;;5.10;99.90;;;;;;5029017;28;20032;-88
2023/02/01 01:10:57;;;;;;;15.30;1.83;;;5.10;99.90;;;;;;5031422;28;20026;-88
2023/02/01 01:13:23;;;;;;;16.92;1.50;;;5.10;99.90;;;;;;5030793;28;20022;-87
2023/02/01 01:15:48;;;;;;;14.43;1.70;;;5.10;99.90;;;;;;5034588;28;20022;-88
2023/02/01 01:18:14;;;;;;;21.23;2.22;;;5.10;99.90;;;;;;5035168;28;20025;-88
2023/02/01 01:20:40;;;;;;;17.20;1.65;;;5.00;99.90;;;;;;5034772;28;20497;-88
2023/02/01 01:23:07;;;;;;;13.38;1.85;;;5.00;99.90;;;;;;5032108;28;20068;-89
2023/02/01 01:25:39;;;;;;;20.92;2.10;;;5.00;99.90;;;;;;5028158;28;20030;-88
2023/02/01 01:28:06;;;;;;;19.50;1.80;;;4.90;99.90;;;;;;5033042;28;20640;-88
2023/02/01 01:30:33;;;;;;;16.73;1.92;;;4.90;99.90;;;;;;5031957;28;20069;-88
2023/02/01 01:32:59;;;;;;;12.63;1.48;;;4.90;99.90;;;;;;5030500;28;20049;-88
2023/02/01 01:35:24;;;;;;;15.07;1.63;;;4.80;99.90;;;;;;5032920;28;20382;-88
2023/02/01 01:37:50;;;;;;;17.98;1.42;;;4.80;99.90;;;;;;5028516;28;20029;-88
2023/02/01 01:40:16;;;;;;;18.63;1.25;;;4.80;99.90;;;;;;5034537;28;20059;-88
2023/02/01 01:42:43;;;;;;;17.13;1.80;;;4.80;99.90;;;;;;5034565;28;20120;-88
2023/02/01 01:45:30;;;;;;;11.98;1.20;;;4.80;99.90;;;;;;5029627;28;20026;-88
2023/02/01 01:48:18;;;;;;;17.38;1.85;;;4.80;99.90;;;;;;5027307;28;20037;-88
2023/02/01 01:50:56;;;;;;;11.98;1.27;;;4.80;99.90;;;;;;5027965;28;20025;-88
2023/02/01 01:53:27;;;;;;;11.40;1.02;;;4.70;99.90;;;;;;5033349;28;20025;-88
2023/02/01 01:55:55;;;;;;;17.42;2.25;;;4.70;99.90;;;;;;5034182;28;20076;-88
2023/02/01 01:58:25;;;;;;;15.98;1.30;;;4.70;99.90;;;;;;5033357;28;20029;-88
2023/02/01 02:00:51;;;;;;;17.77;1.83;;;4.70;99.90;;;;;;5029191;28;20041;-88
2023/02/01 02:03:25;;;;;;;14.05;1.33;;;4.60;99.90;;;;;;5021301;28;20030;-87
2023/02/01 02:05:52;;;;;;;10.18;0.85;;;4.70;99.90;;;;;;5034342;28;20087;-88
2023/02/01 02:08:20;;;;;;;24.35;2.08;;;4.60;99.90;;;;;;5041998;28;20030;-88
2023/02/01 02:11:00;;;;;;;16.98;1.00;;;4.60;99.90;;;;;;5030546;28;20029;-88
2023/02/01 02:13:46;;;;;;;18.58;1.45;;;4.60;99.90;;;;;;5028449;28;20084;-88
2023/02/01 02:16:14;;;;;;;21.13;1.30;;;4.60;99.90;;;;;;5033597;28;20034;-88
2023/02/01 02:19:07;;;;;;;16.60;1.25;;;4.50;99.90;;;;;;5032991;28;20025;-89
2023/02/01 02:21:54;;;;;;;16.08;1.85;;;4.50;99.90;;;;;;5029839;28;20405;-88
2023/02/01 02:24:40;;;;;;;20.52;1.42;;;4.50;99.90;;;;;;5033463;28;20036;-88
2023/02/01 02:27:24;;;;;;;17.65;1.08;;;4.50;99.90;;;;;;5022897;28;20034;-88
2023/02/01 02:30:18;;;;;;;21.85;1.80;;;4.40;99.90;;;;;;5032888;28;20479;-88
2023/02/01 02:33:21;;;;;;;19.80;3.28;;;4.50;99.90;;;;;;5034015;28;20017;-88
2023/02/01 02:36:05;;;;;;;;;;;4.40;99.90;;;;;;5024127;28;20568;-88
2023/02/01 02:39:00;;;;;;;16.05;1.20;;;4.50;99.90;;;;;;5017602;28;20016;-88
2023/02/01 02:47:46;;;;;;;12.75;0.93;;;4.70;99.90;;;;;;5023798;28;20051;-88
2023/02/01 03:04:23;;;;;;;16.33;1.75;;;5.20;99.90;;;;;;5032530;28;20178;-88
2023/02/01 03:06:49;;;;;;;18.85;1.95;;;5.20;99.90;;;;;;5032507;28;20030;-87
2023/02/01 03:09:33;;;;;;;30.88;2.25;;;5.20;99.90;;;;;;5032916;28;20022;-88
2023/02/01 03:14:53;;;;;;;21.48;2.63;;;5.20;99.90;;;;;;5034023;28;20045;-87
2023/02/01 03:17:27;;;;;;;14.30;1.40;;;5.30;99.90;;;;;;5032183;28;20481;-88
2023/02/01 03:19:55;;;;;;;18.42;1.63;;;5.30;99.90;;;;;;5028441;28;20051;-88
2023/02/01 03:22:24;;;;;;;23.75;1.70;;;5.30;99.90;;;;;;5023689;28;20030;-88
2023/02/01 03:24:58;;;;;;;16.00;1.92;;;5.30;99.90;;;;;;5032394;28;20033;-88
2023/02/01 03:27:35;;;;;;;14.30;1.30;;;5.30;99.90;;;;;;5030652;28;20100;-88
2023/02/01 03:30:09;;;;;;;19.73;1.80;;;5.40;99.90;;;;;;5027595;28;20033;-88
2023/02/01 03:35:39;;;;;;;17.05;2.08;;;5.40;99.90;;;;;;5024112;28;20583;-88
2023/02/01 03:38:32;;;;;;;22.52;1.33;;;5.40;99.90;;;;;;5029295;28;20025;-88
2023/02/01 03:41:23;;;;;;;26.52;1.77;;;5.30;99.90;;;;;;5032146;28;20040;-89
2023/02/01 03:44:19;;;;;;;19.58;1.92;;;5.30;99.90;;;;;;5032349;28;20184;-88
2023/02/01 03:46:54;;;;;;;19.08;1.13;;;5.20;99.90;;;;;;5030695;28;20033;-88
2023/02/01 03:49:26;;;;;;;26.27;2.25;;;5.20;99.90;;;;;;5032616;28;20060;-88
2023/02/01 03:51:52;;;;;;;26.33;2.80;;;5.20;99.90;;;;;;5029236;28;20083;-88
2023/02/01 03:54:19;;;;;;;18.75;2.15;;;5.20;99.90;;;;;;5022372;28;20053;-88
2023/02/01 03:56:47;;;;;;;22.02;1.90;;;5.20;99.90;;;;;;5032475;28;20116;-87
2023/02/01 03:59:14;;;;;;;26.38;2.13;;;5.20;99.90;;;;;;5032587;28;20021;-88
2023/02/01 04:01:40;;;;;;;18.33;2.13;;;5.20;99.90;;;;;;5028345;28;20472;-87
2023/02/01 04:04:07;;;;;;;26.45;2.03;;;5.20;99.90;;;;;;5028614;28;20068;-88
2023/02/01 04:06:32;;;;;;;16.55;3.17;;;5.10;99.90;;;;;;5028720;28;20033;-88
2023/02/01 04:08:58;;;;;;;19.98;2.45;;;5.10;99.90;;;;;;5031081;28;20025;-88
2023/02/01 04:11:23;;;;;;;19.40;2.40;;;5.00;99.90;;;;;;5017661;28;20030;-88
2023/02/01 04:13:49;;;;;;;21.15;2.28;;;5.00;99.90;;;;;;5032183;28;20095;-88
2023/02/01 04:16:15;;;;;;;21.23;2.38;;;5.00;99.90;;;;;;5027546;28;20034;-88
2023/02/01 04:18:40;;;;;;;26.38;2.92;;;5.00;99.90;;;;;;5025025;28;20030;-88
2023/02/01 04:21:06;;;;;;;23.65;2.08;;;5.00;99.90;;;;;;5025881;28;20044;-88
2023/02/01 04:23:31;;;;;;;17.52;1.27;;;5.00;99.90;;;;;;5032128;28;20441;-88
2023/02/01 04:26:02;;;;;;;16.98;2.33;;;4.90;99.90;;;;;;5029047;28;20389;-88
2023/02/01 04:28:28;;;;;;;31.33;2.25;;;4.90;99.90;;;;;;5047362;28;20451;-87
2023/02/01 04:30:54;;;;;;;23.55;2.58;;;4.90;99.90;;;;;;5032020;28;20075;-88
2023/02/01 04:33:19;;;;;;;23.55;2.60;;;4.90;99.90;;;;;;5027991;28;20041;-87
2023/02/01 04:35:45;;;;;;;25.38;1.70;;;4.80;99.90;;;;;;5030777;28;20029;-88
2023/02/01 04:38:10;;;;;;;13.10;1.50;;;4.80;99.90;;;;;;5023297;28;20026;-88
2023/02/01 04:40:37;;;;;;;23.13;1.95;;;4.90;99.90;;;;;;5028639;28;20080;-88
2023/02/01 04:43:03;;;;;;;23.83;1.70;;;4.90;99.90;;;;;;5013712;28;20030;-88
2023/02/01 04:45:29;;;;;;;26.50;1.70;;;5.00;99.90;;;;;;5031378;28;20025;-88
2023/02/01 04:47:54;;;;;;;16.52;1.65;;;5.10;99.90;;;;;;5036457;28;20053;-88
2023/02/01 04:50:20;;;;;;;17.45;2.22;;;5.10;99.90;;;;;;5030278;28;20048;-87
2023/02/01 04:52:46;;;;;;;20.08;1.48;;;5.20;99.90;;;;;;5031366;28;20080;-88
2023/02/01 04:55:13;;;;;;;27.27;3.33;;;5.30;99.90;;;;;;5027782;28;20026;-88
2023/02/01 04:57:40;;;;;;;16.83;1.08;;;5.30;99.90;;;;;;5024033;28;20094;-87
2023/02/01 05:00:07;;;;;;;25.63;2.22;;;5.40;99.90;;;;;;5031341;28;20087;-88
2023/02/01 05:02:32;;;;;;;21.88;2.72;;;5.40;99.90;;;;;;5008604;28;20033;-88
2023/02/01 05:04:58;;;;;;;29.85;2.78;;;5.50;99.90;;;;;;5032277;28;20075;-88
2023/02/01 05:07:24;;;;;;;16.60;2.25;;;5.50;99.90;;;;;;5030076;28;20101;-88
2023/02/01 05:09:49;;;;;;;29.75;1.98;;;5.50;99.90;;;;;;5034061;28;20033;-88
2023/02/01 05:14:59;;;;;;;22.77;2.28;;;5.60;99.90;;;;;;5026286;28;20065;-88
2023/02/01 05:17:24;;;;;;;15.20;1.63;;;5.70;99.90;;;;;;5032358;28;20029;-88
2023/02/01 05:19:50;;;;;;;16.38;1.55;;;5.70;99.90;;;;;;5035721;28;20031;-88
2023/02/01 05:22:15;;;;;;;21.60;2.47;;;5.80;99.90;;;;;;5041052;28;20034;-88
2023/02/01 05:24:41;;;;;;;20.88;1.73;;;5.80;99.90;;;;;;5032087;28;20026;-88
2023/02/01 05:27:07;;;;;;;17.98;2.53;;;5.80;99.90;;;;;;5030357;28;20033;-88
2023/02/01 05:29:32;;;;;;;20.15;1.88;;;5.90;99.90;;;;;;5035482;28;20036;-88
2023/02/01 05:31:58;;;;;;;24.23;2.05;;;5.90;99.90;;;;;;5036098;28;20017;-88
2023/02/01 05:34:23;;;;;;;25.23;3.10;;;5.90;99.90;;;;;;5035357;28;20046;-87
2023/02/01 05:36:49;;;;;;;23.20;2.00;;;5.90;99.90;;;;;;5034796;28;20021;-87
2023/02/01 05:39:14;;;;;;;19.85;1.80;;;5.90;99.90;;;;;;5035207;28;20024;-89
2023/02/01 05:41:40;;;;;;;23.55;1.52;;;5.90;99.90;;;;;;5035635;28;20129;-88
2023/02/01 05:44:07;;;;;;;18.60;2.25;;;6.00;99.90;;;;;;5035332;28;20481;-89
2023/02/01 05:46:33;;;;;;;21.65;2.20;;;5.90;99.90;;;;;;5032847;28;20108;-89
2023/02/01 05:48:59;;;;;;;23.00;1.45;;;5.90;99.90;;;;;;5032578;28;20095;-88
2023/02/01 05:51:24;;;;;;;21.33;1.85;;;5.90;99.90;;;;;;5035187;28;20033;-88
2023/02/01 05:53:50;;;;;;;12.23;1.20;;;5.90;99.90;;;;;;5035338;28;20382;-88
2023/02/01 05:56:15;;;;;;;23.02;1.73;;;5.90;99.90;;;;;;5034922;28;20109;-88
2023/02/01 05:58:41;;;;;;;21.10;3.53;;;5.90;99.90;;;;;;5034144;28;20371;-88
2023/02/01 06:01:06;;;;;;;20.67;1.52;;;5.90;99.90;;;;;;5034685;28;20478;-88
2023/02/01 06:03:32;;;;;;;25.48;2.78;;;5.90;99.90;;;;;;5034812;28;20410;-88
2023/02/01 06:05:58;;;;;;;21.08;2.05;;;6.00;99.90;;;;;;5034256;28;20076;-87
2023/02/01 06:08:26;;;;;;;21.45;2.63;;;5.90;99.90;;;;;;5025214;28;20049;-89
2023/02/01 06:10:58;;;;;;;17.42;1.20;;;5.90;99.90;;;;;;5028119;28;20025;-89
2023/02/01 06:13:23;;;;;;;16.90;2.20;;;6.00;99.90;;;;;;5032197;28;20022;-90
2023/02/01 06:15:49;;;;;;;22.85;2.15;;;6.00;99.90;;;;;;5035164;28;20041;-89
2023/02/01 06:18:15;;;;;;;22.08;1.80;;;6.00;99.90;;;;;;5029110;28;20025;-88
2023/02/01 06:20:41;;;;;;;16.80;1.95;;;6.00;99.90;;;;;;5036006;28;20043;-87
2023/02/01 06:23:06;;;;;;;16.65;1.73;;;6.00;99.90;;;;;;5034693;28;20461;-89
2023/02/01 06:25:32;;;;;;;19.88;1.45;;;6.10;99.90;;;;;;5036464;28;20025;-89
2023/02/01 06:28:00;;;;;;;21.00;2.25;;;6.10;99.90;;;;;;5037349;28;20033;-89
2023/02/01 06:30:26;;;;;;;20.67;2.25;;;6.10;99.90;;;;;;5023222;28;20033;-88
2023/02/01 06:32:55;;;;;;;17.00;2.35;;;6.20;99.90;;;;;;5034527;28;20167;-88
2023/02/01 06:35:20;;;;;;;19.42;2.17;;;6.20;99.90;;;;;;5028473;28;20041;-89
2023/02/01 06:37:46;;;;;;;17.90;1.63;;;6.20;99.90;;;;;;5023820;28;20026;-88
2023/02/01 06:40:12;;;;;;;25.48;2.08;;;6.20;99.90;;;;;;5035354;28;20091;-88
2023/02/01 06:42:37;;;;;;;26.98;2.53;;;6.20;99.90;;;;;;5031023;28;20073;-88
2023/02/01 06:45:03;;;;;;;20.98;1.80;;;6.20;99.90;;;;;;5028701;28;20060;-89
2023/02/01 06:47:29;;;;;;;22.58;2.25;;;6.30;99.90;;;;;;5049069;28;20120;-89
2023/02/01 06:49:54;;;;;;;19.48;1.90;;;6.30;99.90;;;;;;5055884;28;20024;-88
2023/02/01 06:52:20;;;;;;;19.08;2.75;;;6.30;99.90;;;;;;5040792;28;20383;-89
2023/02/01 06:54:45;;;;;;;13.43;1.67;;;6.30;99.90;;;;;;5025540;28;20025;-89
2023/02/01 06:57:11;;;;;;;20.30;2.60;;;6.30;99.90;;;;;;5035527;28;20110;-88
2023/02/01 06:59:37;;;;;;;16.98;2.25;;;6.30;99.90;;;;;;5033554;28;20026;-88
2023/02/01 07:02:02;;;;;;;19.35;2.35;;;6.30;99.90;;;;;;5036398;28;20033;-89
2023/02/01 07:04:28;;;;;;;19.10;2.47;;;6.30;99.90;;;;;;5026524;28;20481;-89
2023/02/01 07:06:53;;;;;;;17.65;2.10;;;6.30;99.90;;;;;;5032688;28;20048;-89
2023/02/01 07:09:19;;;;;;;19.88;2.05;;;6.30;99.90;;;;;;5028370;28;20021;-89
2023/02/01 07:11:44;;;;;;;17.90;3.75;;;6.30;99.90;;;;;;5016889;28;20061;-88
2023/02/01 07:14:10;;;;;;;25.45;2.45;;;6.30;99.90;;;;;;5019537;28;20064;-88
2023/02/01 07:16:36;;;;;;;23.75;1.75;;;6.20;99.90;;;;;;5027606;28;20092;-89
2023/02/01 07:19:02;;;;;;;18.50;2.55;;;6.20;99.90;;;;;;5014193;28;20022;-90
2023/02/01 07:21:27;;;;;;;23.30;1.65;;;6.20;99.90;;;;;;5031874;28;20500;-89
2023/02/01 07:23:54;;;;;;;13.73;1.58;;;6.20;99.90;;;;;;5022055;28;20030;-89
2023/02/01 07:26:20;;;;;;;14.63;2.45;;;6.20;99.90;;;;;;5013624;28;20467;-90
2023/02/01 07:28:46;;;;;;;17.80;1.83;;;6.20;99.90;;;;;;5013946;28;20069;-89
2023/02/01 07:31:19;;;;;;;23.67;2.67;;;6.20;99.90;;;;;;5030608;28;20034;-90
2023/02/01 07:33:45;;;;;;;17.75;2.55;;;6.20;99.90;;;;;;5017667;28;20080;-90
2023/02/01 07:36:13;;;;;;;18.02;1.80;;;6.20;99.90;;;;;;5034449;28;20057;-90
2023/02/01 07:38:39;;;;;;;27.48;2.40;;;6.20;99.90;;;;;;5034905;28;20031;-91
2023/02/01 07:41:06;;;;;;;22.13;2.50;;;6.10;99.90;;;;;;5033828;28;20476;-92
2023/02/01 07:43:35;;;;;;;17.35;2.10;;;6.10;99.90;;;;;;5033638;28;20367;-91
2023/02/01 07:46:01;;;;;;;24.17;2.38;;;6.20;99.90;;;;;;5036951;28;20036;-91
2023/02/01 07:48:28;;;;;;;13.15;1.55;;;6.10;99.90;;;;;;5026957;28;20036;-89
2023/02/01 07:51:05;;;;;;;20.35;1.65;;;6.20;99.90;;;;;;5020925;28;20038;-90
2023/02/01 07:53:32;;;;;;;24.20;2.10;;;6.10;99.90;;;;;;5014232;28;20108;-90
2023/02/01 07:55:58;;;;;;;22.75;3.50;;;6.10;99.90;;;;;;5030564;28;20071;-90
2023/02/01 07:58:25;;;;;;;20.15;1.85;;;6.10;99.90;;;;;;5033045;28;20048;-91
2023/02/01 08:03:35;;;;;;;19.98;2.05;;;6.10;99.90;;;;;;5032101;28;20032;-91
2023/02/01 08:06:01;;;;;;;20.65;1.70;;;6.10;99.90;;;;;;5032804;28;20030;-91
2023/02/01 08:08:26;;;;;;;18.70;1.73;;;6.10;99.90;;;;;;5034062;28;20048;-93
2023/02/01 08:10:57;;;;;;;17.70;2.13;;;6.00;99.90;;;;;;5032241;28;20457;-92
2023/02/01 08:13:23;;;;;;;19.30;1.83;;;6.00;99.90;;;;;;5032208;28;20502;-91
2023/02/01 08:15:48;;;;;;;13.48;1.90;;;6.00;99.90;;;;;;5031258;28;20026;-92
2023/02/01 08:18:16;;;;;;;18.85;2.28;;;5.90;99.90;;;;;;5024274;28;20029;-91
2023/02/01 08:20:43;;;;;;;18.15;2.20;;;6.00;99.90;;;;;;5031642;28;20038;-90
2023/02/01 08:23:09;;;;;;;22.40;2.42;;;6.00;99.90;;;;;;5025628;28;20030;-91
2023/02/01 08:25:35;;;;;;;12.43;1.83;;;6.00;99.90;;;;;;5013672;28;20397;-90
2023/02/01 08:28:01;;;;;;;17.50;2.10;;;6.10;99.90;;;;;;5021049;28;20026;-91
2023/02/01 08:30:27;;;;;;;18.25;3.10;;;6.10;99.90;;;;;;5032382;28;20026;-91
2023/02/01 08:32:53;;;;;;;19.35;1.95;;;6.10;99.90;;;;;;5026491;28;20022;-91
2023/02/01 08:35:18;;;;;;;16.58;1.98;;;6.10;99.90;;;;;;5034507;28;20386;-90
2023/02/01 08:37:44;;;;;;;22.50;1.88;;;6.10;99.90;;;;;;5036941;28;20013;-89
2023/02/01 08:40:10;;;;;;;13.40;2.17;;;6.10;99.90;;;;;;5036427;28;20056;-89
2023/02/01 08:42:51;;;;;;;24.00;2.58;;;6.10;99.90;;;;;;5035273;28;20524;-91
2023/02/01 08:45:23;;;;;;;17.38;2.35;;;6.10;99.90;;;;;;5035449;28;20083;-90
2023/02/01 08:47:50;;;;;;;23.50;2.45;;;6.00;99.90;;;;;;5036734;28;20117;-90
2023/02/01 08:50:16;;;;;;;17.92;2.55;;;6.00;99.90;;;;;;5028871;28;20045;-91
2023/02/01 08:52:42;;;;;;;18.63;2.15;;;6.00;99.90;;;;;;5038934;28;20032;-91
2023/02/01 08:55:08;;;;;;;27.80;3.63;;;6.10;99.90;;;;;;5029472;28;20029;-90
2023/02/01 08:57:34;;;;;;;24.20;3.17;;;6.10;99.90;;;;;;5034672;28;20085;-91
2023/02/01 09:00:00;;;;;;;23.52;2.78;;;6.20;99.90;;;;;;5034431;28;20029;-91
2023/02/01 09:02:26;;;;;;;17.15;1.40;;;6.30;99.90;;;;;;5035024;28;20034;-91
2023/02/01 09:04:52;;;;;;;21.42;2.97;;;6.30;99.90;;;;;;5037505;28;20101;-90
2023/02/01 09:07:18;;;;;;;20.23;2.10;;;6.40;99.90;;;;;;5037563;28;20057;-90
2023/02/01 09:09:44;;;;;;;27.75;2.63;;;6.40;99.90;;;;;;5037368;28;20033;-90
2023/02/01 09:12:10;;;;;;;18.95;1.85;;;6.50;99.90;;;;;;5034335;28;20033;-90
2023/02/01 09:14:35;;;;;;;21.27;2.20;;;6.60;99.90;;;;;;5035468;28;20064;-91
2023/02/01 09:17:01;;;;;;;24.00;2.08;;;6.70;99.90;;;;;;5033146;28;20041;-92
2023/02/01 09:19:26;;;;;;;22.13;2.22;;;6.80;99.90;;;;;;5036243;28;20048;-90
2023/02/01 09:21:52;;;;;;;17.20;2.65;;;6.90;99.90;;;;;;5035745;28;20033;-91
2023/02/01 09:24:17;;;;;;;20.38;2.20;;;6.90;99.90;;;;;;5029163;28;20037;-91
2023/02/01 09:26:45;;;;;;;20.30;2.72;;;7.00;99.90;;;;;;5029229;28;20018;-91
2023/02/01 09:29:10;;;;;;;23.63;2.53;;;7.00;99.90;;;;;;5036053;28;20115;-92
2023/02/01 09:31:37;;;;;;;20.80;2.45;;;7.00;99.90;;;;;;5036443;28;20129;-92
2023/02/01 09:34:03;;;;;;;23.52;2.08;;;7.00;99.90;;;;;;5027600;28;20038;-92
2023/02/01 09:36:29;;;;;;;25.30;2.17;;;7.10;99.90;;;;;;5016091;28;20529;-92
2023/02/01 09:38:55;;;;;;;17.17;1.60;;;7.20;99.90;;;;;;5032888;28;20026;-92
2023/02/01 09:41:37;;;;;;;23.75;2.20;;;7.10;99.90;;;;;;5032966;28;20034;-90
2023/02/01 09:44:42;;;;;;;19.20;2.17;;;7.20;99.90;;;;;;5028539;28;20490;-92
2023/02/01 09:47:17;;;;;;;22.05;2.40;;;7.30;99.90;;;;;;5036382;28;20048;-91
2023/02/01 09:50:06;;;;;;;18.40;1.80;;;7.50;99.90;;;;;;5036552;28;20051;-91
2023/02/01 09:52:42;;;;;;;17.15;1.70;;;7.60;99.90;;;;;;5033547;28;20065;-91
2023/02/01 09:55:16;;;;;;;20.67;1.63;;;7.70;99.90;;;;;;5032999;28;20056;-92
2023/02/01 09:58:18;;;;;;;15.10;2.05;;;7.90;99.90;;;;;;5035950;28;20033;-91
2023/02/01 10:00:56;;;;;;;18.83;1.80;;;8.00;99.90;;;;;;5035700;28;20045;-92
2023/02/01 10:03:27;;;;;;;16.48;2.10;;;8.00;99.90;;;;;;5021878;28;20053;-92
2023/02/01 10:06:26;;;;;;;21.85;2.95;;;8.00;99.90;;;;;;5036056;28;20029;-92
2023/02/01 10:09:11;;;;;;;15.45;1.70;;;8.10;99.90;;;;;;5036425;28;20037;-93
2023/02/01 10:11:48;;;;;;;17.25;2.13;;;8.10;99.90;;;;;;5036403;28;20025;-91
2023/02/01 10:14:44;;;;;;;18.00;2.15;;;8.10;99.90;;;;;;5036892;28;20029;-91
2023/02/01 10:17:31;;;;;;;23.15;1.83;;;8.00;99.90;;;;;;5040441;28;20389;-91
2023/02/01 10:20:25;;;;;;;13.00;1.80;;;7.90;99.90;;;;;;5039696;28;20029;-92
2023/02/01 10:23:23;;;;;;;25.27;2.28;;;7.90;99.90;;;;;;5036280;28;20371;-90
2023/02/01 10:26:18;;;;;;;19.38;1.73;;;7.90;99.90;;;;;;5016127;28;20180;-91
2023/02/01 10:28:49;;;;;;;24.35;2.97;;;7.90;99.90;;;;;;5003313;28;20029;-92
2023/02/01 10:31:15;;;;;;;21.60;1.70;;;7.80;99.90;;;;;;5042901;28;20021;-91
2023/02/01 10:34:07;;;;;;;19.30;1.45;;;7.80;99.90;;;;;;5034961;28;20041;-91
2023/02/01 10:36:36;;;;;;;13.63;1.77;;;7.90;99.90;;;;;;5035665;28;20022;-91
2023/02/01 10:39:04;;;;;;;17.33;1.90;;;7.80;99.90;;;;;;5035254;28;20103;-92
2023/02/01 10:41:35;;;;;;;16.52;1.20;;;7.90;99.90;;;;;;5035477;28;20033;-91
2023/02/01 10:44:03;;;;;;;16.17;2.15;;;7.90;99.90;;;;;;5035369;28;20485;-91
2023/02/01 10:46:30;;;;;;;22.20;2.05;;;7.80;99.90;;;;;;5035565;28;20053;-91
2023/02/01 10:49:00;;;;;;;22.88;2.22;;;7.70;99.90;;;;;;5018487;28;20393;-91
2023/02/01 10:51:39;;;;;;;14.23;2.53;;;7.60;99.90;;;;;;5028172;28;20193;-91
2023/02/01 10:54:15;;;;;;;27.55;2.15;;;7.50;99.90;;;;;;5034985;28;20067;-91
2023/02/01 10:56:45;;;;;;;20.38;2.15;;;7.40;99.90;;;;;;5035099;28;20037;-91
2023/02/01 10:59:20;;;;;;;19.40;1.42;;;7.30;99.90;;;;;;5034131;28;20022;-92
2023/02/01 11:01:48;;;;;;;22.75;2.00;;;7.20;99.90;;;;;;5032788;28;20069;-91
2023/02/01 11:04:19;;;;;;;16.38;1.85;;;7.20;99.90;;;;;;5035087;28;20462;-91
2023/02/01 11:07:05;;;;;;;24.95;2.72;;;7.20;99.90;;;;;;5035486;28;20555;-91
2023/02/01 11:09:31;;;;;;;20.75;3.72;;;7.10;99.90;;;;;;5034695;28;20457;-91
2023/02/01 11:11:59;;;;;;;19.40;1.92;;;7.20;99.90;;;;;;5034728;28;20067;-91
2023/02/01 11:14:24;;;;;;;23.77;2.00;;;7.20;99.90;;;;;;5037069;28;20017;-92
2023/02/01 11:16:58;;;;;;;23.77;1.98;;;7.20;99.90;;;;;;5054943;28;20040;-93
2023/02/01 11:19:23;;;;;;;21.98;2.65;;;7.30;99.90;;;;;;5043449;28;20018;-91
2023/02/01 11:21:52;;;;;;;20.52;1.95;;;7.30;99.90;;;;;;5034966;28;20039;-91
2023/02/01 11:24:35;;;;;;;22.30;1.88;;;7.40;99.90;;;;;;5034387;28;20026;-91
2023/02/01 11:27:12;;;;;;;17.52;1.90;;;7.40;99.90;;;;;;5034674;28;20037;-92
2023/02/01 11:29:51;;;;;;;18.08;2.20;;;7.40;99.90;;;;;;5034414;28;20029;-91
2023/02/01 11:32:18;;;;;;;27.13;3.13;;;7.50;99.90;;;;;;5034882;28;20096;-91
2023/02/01 11:34:53;;;;;;;16.35;2.15;;;7.50;99.90;;;;;;5028647;28;20041;-92
2023/02/01 11:37:28;;;;;;;20.77;3.72;;;7.50;99.90;;;;;;5036700;28;20025;-91
2023/02/01 11:39:56;;;;;;;12.15;1.42;;;7.50;99.90;;;;;;5036747;28;20056;-91
2023/02/01 11:42:22;;;;;;;19.67;2.58;;;7.50;99.90;;;;;;5034627;28;20381;-91
2023/02/01 11:44:48;;;;;;;18.08;2.00;;;7.50;99.90;;;;;;5035488;28;20032;-90
2023/02/01 11:47:38;;;;;;;18.33;2.30;;;7.50;99.90;;;;;;5034824;28;20025;-92
2023/02/01 11:50:14;;;;;;;21.95;2.45;;;7.50;99.90;;;;;;5035788;28;20021;-93
2023/02/01 11:52:48;;;;;;;17.92;3.05;;;7.40;99.90;;;;;;5029236;28;20061;-93
2023/02/01 11:55:26;;;;;;;19.05;2.00;;;7.10;99.90;;;;;;5035348;28;20025;-92
2023/02/01 11:58:09;;;;;;;24.60;2.08;;;6.90;99.90;;;;;;5036498;28;20112;-93
2023/02/01 12:01:02;;;;;;;26.83;3.75;;;6.80;99.90;;;;;;5031778;28;20030;-93
2023/02/01 12:03:30;;;;;;;21.05;2.42;;;6.70;99.90;;;;;;5032230;28;20030;-91
2023/02/01 12:06:09;;;;;;;25.75;2.75;;;6.60;99.90;;;;;;5022683;28;20032;-91
2023/02/01 12:08:58;;;;;;;22.35;2.70;;;6.60;99.90;;;;;;5032503;28;20515;-90
2023/02/01 12:11:57;;;;;;;21.60;3.58;;;6.60;99.90;;;;;;5028757;28;20028;-90
2023/02/01 12:14:41;;;;;;;30.85;2.17;;;6.70;99.90;;;;;;5038145;28;20077;-90
2023/02/01 12:17:28;;;;;;;18.30;1.75;;;6.70;99.90;;;;;;5034651;28;20047;-92
2023/02/01 12:20:32;;;;;;;18.15;2.00;;;6.80;99.90;;;;;;5037927;28;20492;-90
2023/02/01 12:23:20;;;;;;;21.20;1.95;;;6.90;99.90;;;;;;5038883;28;20045;-91
2023/02/01 12:25:52;;;;;;;18.25;2.45;;;7.00;99.90;;;;;;5037399;28;20512;-91
2023/02/01 12:28:33;;;;;;;19.15;1.42;;;7.10;99.90;;;;;;5054346;28;20116;-92
2023/02/01 12:31:24;;;;;;;18.63;2.13;;;7.20;99.90;;;;;;5038456;28;20037;-92
2023/02/01 12:34:14;;;;;;;16.40;1.67;;;7.30;99.90;;;;;;5032726;28;20048;-91
2023/02/01 12:36:43;;;;;;;18.50;1.30;;;7.40;99.90;;;;;;5018160;28;20084;-92
2023/02/01 12:39:26;;;;;;;16.77;1.35;;;7.40;99.90;;;;;;5019615;28;20026;-91
2023/02/01 12:42:00;;;;;;;17.95;1.98;;;7.40;99.90;;;;;;5052750;28;20048;-91
2023/02/01 12:44:48;;;;;;;22.30;2.78;;;7.50;99.90;;;;;;5026763;28;20025;-90
2023/02/01 12:47:24;;;;;;;24.40;3.05;;;7.50;99.90;;;;;;5035395;28;20079;-90
2023/02/01 12:50:12;;;;;;;21.80;2.05;;;7.50;99.90;;;;;;5042014;28;20020;-91
2023/02/01 12:52:51;;;;;;;18.10;2.28;;;7.60;99.90;;;;;;5027158;28;20026;-91
2023/02/01 12:55:27;;;;;;;23.85;2.25;;;7.60;99.90;;;;;;5038395;28;20029;-91
2023/02/01 12:58:07;;;;;;;15.55;1.80;;;7.70;99.90;;;;;;5035999;28;20136;-91
2023/02/01 13:00:38;;;;;;;16.98;1.80;;;7.70;99.90;;;;;;5032936;28;20057;-92
2023/02/01 13:03:35;;;;;;;15.98;1.30;;;7.70;99.90;;;;;;5024809;28;20505;-91
2023/02/01 13:06:26;;;;;;;20.50;1.58;;;7.80;99.90;;;;;;5047560;28;20036;-92
2023/02/01 13:09:12;;;;;;;16.15;1.52;;;7.80;99.90;;;;;;5032059;28;20030;-91
2023/02/01 13:11:40;;;;;;;20.20;2.88;;;7.90;99.90;;;;;;5042649;28;20048;-94
2023/02/01 13:14:25;;;;;;;20.33;1.63;;;7.90;99.90;;;;;;5042271;28;20111;-91
2023/02/01 13:17:05;;;;;;;19.10;2.13;;;7.80;99.90;;;;;;5037730;28;20028;-91
2023/02/01 13:20:13;;;;;;;15.45;1.38;;;7.80;99.90;;;;;;5051770;28;20021;-91
2023/02/01 13:22:43;;;;;;;21.08;1.73;;;7.90;99.90;;;;;;5051663;28;20824;-92
2023/02/01 13:25:20;;;;;;;18.23;1.73;;;7.90;99.90;;;;;;5038495;28;20029;-90
2023/02/01 13:27:46;;;;;;;21.65;1.95;;;8.00;99.90;;;;;;5031783;28;20056;-92
2023/02/01 13:30:25;;;;;;;24.63;2.22;;;8.10;99.90;;;;;;5033754;28;20037;-92
2023/02/01 13:33:15;;;;;;;22.85;1.85;;;8.20;99.90;;;;;;5038456;28;20398;-91
2023/02/01 13:36:12;;;;;;;18.05;2.55;;;8.20;99.90;;;;;;5018993;28;20030;-90
2023/02/01 13:39:27;;;;;;;18.60;2.05;;;8.30;99.90;;;;;;5022820;28;20033;-92
2023/02/01 13:42:01;;;;;;;18.13;1.80;;;8.30;99.90;;;;;;5028265;28;20042;-91
2023/02/01 13:44:33;;;;;;;13.27;1.15;;;8.30;99.90;;;;;;5027820;28;20037;-91